createdAt,value
2019-02-17T09:54:13.140Z,2684.00
2019-02-17T09:55:13.099Z,2672.00
2019-02-17T09:56:13.080Z,2660.00
2019-02-17T09:57:13.054Z,2608.00
2019-02-17T09:58:13.034Z,2568.00
2019-02-17T09:59:13.016Z,2520.00
2019-02-17T10:00:12.995Z,2484.00
2019-02-17T10:01:12.973Z,2416.00
2019-02-17T10:02:12.969Z,2380.00
2019-02-17T10:03:12.933Z,2348.00
2019-02-17T10:04:12.910Z,2296.00
2019-02-17T10:05:12.890Z,2244.00
2019-02-17T10:06:12.879Z,2200.00
2019-02-17T10:07:12.851Z,2156.00
2019-02-17T10:08:12.835Z,2120.00
2019-02-17T10:09:12.813Z,2088.00
2019-02-17T10:10:12.791Z,2060.00
2019-02-17T10:11:13.506Z,2024.00
2019-02-17T10:12:12.807Z,1976.00
2019-02-17T10:13:12.748Z,1964.00
2019-02-17T10:14:13.092Z,1956.00
2019-02-17T10:15:13.044Z,1960.00
2019-02-17T10:16:13.145Z,1956.00
2019-02-17T10:17:13.058Z,1956.00
2019-02-17T10:18:12.678Z,1972.00
2019-02-17T10:19:12.612Z,1984.00
2019-02-17T10:20:12.596Z,1976.00
2019-02-17T10:21:12.573Z,1920.00
2019-02-17T10:22:12.557Z,1840.00
2019-02-17T10:23:12.526Z,1948.00
2019-02-17T10:24:12.531Z,1968.00
2019-02-17T10:25:12.512Z,1964.00
2019-02-17T10:26:12.482Z,1944.00
2019-02-17T10:27:12.829Z,1940.00
2019-02-17T10:28:13.239Z,1948.00
2019-02-17T10:29:12.788Z,1948.00
2019-02-17T10:30:12.423Z,1956.00
2019-02-17T10:31:12.366Z,1972.00
2019-02-17T10:32:12.355Z,1996.00
2019-02-17T10:33:12.329Z,2020.00
2019-02-17T10:34:12.310Z,2024.00
2019-02-17T10:35:12.640Z,2032.00
2019-02-17T10:36:12.278Z,2016.00
2019-02-17T10:37:12.257Z,2008.00
2019-02-17T10:38:12.236Z,2020.00
2019-02-17T10:39:12.222Z,2024.00
2019-02-17T10:40:12.199Z,2036.00
2019-02-17T10:41:12.178Z,2032.00
2019-02-17T10:42:12.166Z,2024.00
2019-02-17T10:43:12.140Z,2024.00
2019-02-17T10:44:12.118Z,2028.00
2019-02-17T10:45:12.103Z,2028.00
2019-02-17T10:46:12.083Z,2028.00
2019-02-17T10:47:12.069Z,2036.00
2019-02-17T10:48:12.043Z,2028.00
2019-02-17T10:49:12.028Z,2016.00
2019-02-17T10:50:12.008Z,1984.00
2019-02-17T10:51:11.989Z,1960.00
2019-02-17T10:52:11.970Z,1968.00
2019-02-17T10:53:11.948Z,1972.00
2019-02-17T10:54:11.927Z,1972.00
2019-02-17T10:55:11.916Z,1964.00
2019-02-17T10:56:11.886Z,1948.00
2019-02-17T10:57:11.870Z,1944.00
2019-02-17T10:58:11.852Z,1936.00
2019-02-17T10:59:11.830Z,1952.00
2019-02-17T11:00:11.813Z,1948.00
2019-02-17T11:01:11.792Z,1956.00
2019-02-17T11:02:11.775Z,1964.00
2019-02-17T11:03:11.755Z,1964.00
2019-02-17T11:04:11.733Z,1968.00
2019-02-17T11:05:11.720Z,1976.00
2019-02-17T11:06:11.696Z,1980.00
2019-02-17T11:07:11.682Z,1996.00
2019-02-17T11:08:11.660Z,1992.00
2019-02-17T11:09:11.639Z,1988.00
2019-02-17T11:10:11.624Z,1996.00
2019-02-17T11:11:11.599Z,1992.00
2019-02-17T11:12:11.603Z,2000.00
2019-02-17T11:13:11.579Z,2008.00
2019-02-17T11:14:11.541Z,2024.00
2019-02-17T11:15:11.521Z,2032.00
2019-02-17T11:16:11.514Z,2044.00
2019-02-17T11:17:11.492Z,2040.00
2019-02-17T11:18:11.466Z,2040.00
2019-02-17T11:19:11.448Z,2036.00
2019-02-17T11:20:11.421Z,2028.00
2019-02-17T11:21:11.434Z,2056.00
2019-02-17T11:22:11.383Z,2060.00
2019-02-17T11:23:11.407Z,2064.00
2019-02-17T11:24:11.355Z,2084.00
2019-02-17T11:25:11.436Z,2092.00
2019-02-17T11:26:11.314Z,2096.00
2019-02-17T11:27:11.288Z,2088.00
2019-02-17T11:28:11.269Z,2096.00
2019-02-17T11:29:11.290Z,2104.00
2019-02-17T11:30:11.264Z,2116.00
2019-02-17T11:31:11.216Z,2132.00
2019-02-17T11:32:11.200Z,2148.00
2019-02-17T11:33:11.188Z,2160.00
2019-02-17T11:34:11.168Z,2176.00
2019-02-17T11:35:11.134Z,2164.00
2019-02-17T11:36:11.120Z,2180.00
2019-02-17T11:37:11.103Z,2196.00
2019-02-17T11:38:11.087Z,2200.00
2019-02-17T11:39:11.057Z,2204.00
2019-02-17T11:40:11.045Z,2216.00
2019-02-17T11:41:12.654Z,2224.00
2019-02-17T11:42:11.016Z,2252.00
2019-02-17T11:43:11.011Z,2260.00
2019-02-17T11:44:10.964Z,2272.00
2019-02-17T11:45:10.954Z,2308.00
2019-02-17T11:46:10.933Z,2332.00
2019-02-17T11:47:10.916Z,2352.00
2019-02-17T11:48:10.893Z,2348.00
2019-02-17T11:49:10.875Z,2344.00
2019-02-17T11:50:10.864Z,2356.00
2019-02-17T11:51:10.843Z,2380.00
2019-02-17T11:52:10.820Z,2392.00
2019-02-17T11:53:10.808Z,2396.00
2019-02-17T11:54:10.781Z,2404.00
2019-02-17T11:55:10.762Z,2396.00
2019-02-17T11:56:10.741Z,2408.00
2019-02-17T11:57:10.725Z,2400.00
2019-02-17T11:58:10.708Z,2408.00
2019-02-17T11:59:10.696Z,2412.00
2019-02-17T12:00:10.672Z,2416.00
2019-02-17T12:01:10.649Z,2440.00
2019-02-17T12:02:10.631Z,2456.00
2019-02-17T12:03:10.615Z,2464.00
2019-02-17T12:04:10.594Z,2472.00
2019-02-17T12:05:10.574Z,2492.00
2019-02-17T12:06:10.555Z,2488.00
2019-02-17T12:07:10.535Z,2512.00
2019-02-17T12:08:10.552Z,2528.00
2019-02-17T12:09:10.496Z,2536.00
2019-02-17T12:10:10.474Z,2564.00
2019-02-17T12:11:10.463Z,2580.00
2019-02-17T12:12:10.441Z,2592.00
2019-02-17T12:13:10.424Z,2612.00
2019-02-17T12:14:10.408Z,2628.00
2019-02-17T12:15:10.384Z,2648.00
2019-02-17T12:16:10.367Z,2664.00
2019-02-17T12:17:10.358Z,2680.00
2019-02-17T12:18:10.333Z,2704.00
2019-02-17T12:19:10.313Z,2720.00
2019-02-17T12:20:10.293Z,2744.00
2019-02-17T12:21:10.295Z,2756.00
2019-02-17T12:22:10.255Z,2760.00
2019-02-17T12:23:10.246Z,2732.00
2019-02-17T12:24:10.222Z,2784.00
2019-02-17T12:25:10.267Z,2816.00
2019-02-17T12:26:10.182Z,2840.00
2019-02-17T12:27:10.200Z,2872.00
2019-02-17T12:28:10.145Z,2880.00
2019-02-17T12:29:10.127Z,2844.00
2019-02-17T12:30:10.108Z,2892.00
2019-02-17T12:31:10.087Z,2916.00
2019-02-17T12:32:10.071Z,2944.00
2019-02-17T12:33:18.251Z,2968.00
2019-02-17T12:34:10.033Z,2980.00
2019-02-17T12:35:10.013Z,3012.00
2019-02-17T12:36:09.997Z,3036.00
2019-02-17T12:37:09.978Z,3052.00
2019-02-17T12:38:09.963Z,3064.00
2019-02-17T12:39:09.942Z,3092.00
2019-02-17T12:40:09.926Z,3100.00
2019-02-17T12:41:09.902Z,3128.00
2019-02-17T12:42:09.887Z,3156.00
2019-02-17T12:43:09.866Z,3184.00
2019-02-17T12:44:09.846Z,3204.00
2019-02-17T12:45:09.835Z,3216.00
2019-02-17T12:46:09.810Z,3232.00
2019-02-17T12:47:09.791Z,3240.00
2019-02-17T12:48:09.772Z,3236.00
2019-02-17T12:49:09.770Z,3232.00
2019-02-17T12:50:09.736Z,3240.00
2019-02-17T12:51:09.719Z,3260.00
2019-02-17T12:52:09.702Z,3264.00
2019-02-17T12:53:09.682Z,3244.00
2019-02-17T12:54:09.663Z,3228.00
2019-02-17T12:55:09.644Z,3268.00
2019-02-17T12:56:09.626Z,3320.00
2019-02-17T12:57:09.611Z,3332.00
2019-02-17T12:58:09.591Z,3324.00
2019-02-17T12:59:09.573Z,3340.00
2019-02-17T13:00:09.555Z,3348.00
2019-02-17T13:01:09.530Z,3340.00
2019-02-17T13:02:09.518Z,3336.00
2019-02-17T13:03:09.497Z,3360.00
2019-02-17T13:04:09.482Z,3380.00
2019-02-17T13:05:09.461Z,3356.00
2019-02-17T13:06:09.447Z,3356.00
2019-02-17T13:07:09.427Z,3372.00
2019-02-17T13:08:09.404Z,3372.00
2019-02-17T13:09:09.393Z,3388.00
2019-02-17T13:10:09.374Z,3404.00
2019-02-17T13:11:09.353Z,3424.00
2019-02-17T13:12:09.335Z,3452.00
2019-02-17T13:13:09.316Z,3476.00
2019-02-17T13:14:09.327Z,3476.00
2019-02-17T13:15:09.303Z,3492.00
2019-02-17T13:16:09.270Z,3512.00
2019-02-17T13:17:09.274Z,3524.00
2019-02-17T13:18:09.230Z,3556.00
2019-02-17T13:19:09.212Z,3584.00
2019-02-17T13:20:09.220Z,3584.00
2019-02-17T13:21:09.171Z,3572.00
2019-02-17T13:22:09.191Z,3596.00
2019-02-17T13:23:09.143Z,3608.00
2019-02-17T13:24:09.113Z,3616.00
2019-02-17T13:25:09.124Z,3636.00
2019-02-17T13:26:09.097Z,3656.00
2019-02-17T13:27:09.058Z,3652.00
2019-02-17T13:28:09.055Z,3700.00
2019-02-17T13:29:09.027Z,3716.00
2019-02-17T13:30:09.013Z,3756.00
2019-02-17T13:31:08.997Z,3820.00
2019-02-17T13:32:08.970Z,3852.00
2019-02-17T13:33:08.954Z,3908.00
2019-02-17T13:34:08.932Z,3944.00
2019-02-17T13:35:08.942Z,3968.00
2019-02-17T13:36:08.913Z,3976.00
2019-02-17T13:37:08.882Z,3996.00
2019-02-17T13:38:08.866Z,4012.00
2019-02-17T13:39:08.854Z,3924.00
2019-02-17T13:40:08.836Z,4048.00
2019-02-17T13:41:08.802Z,4072.00
2019-02-17T13:42:08.796Z,4108.00
2019-02-17T13:43:08.786Z,4216.00
2019-02-17T13:44:08.759Z,4276.00
2019-02-17T13:45:08.741Z,4284.00
2019-02-17T13:46:08.726Z,4288.00
2019-02-17T13:47:08.707Z,4356.00
2019-02-17T13:48:08.690Z,4416.00
2019-02-17T13:49:08.670Z,4576.00
2019-02-17T13:50:08.646Z,4700.00
2019-02-17T13:51:08.652Z,4832.00
2019-02-17T13:52:08.617Z,4912.00
2019-02-17T13:53:11.890Z,4928.00
2019-02-17T13:54:08.572Z,5180.00
2019-02-17T13:55:08.578Z,5424.00
2019-02-17T13:56:08.547Z,5640.00
2019-02-17T13:57:08.531Z,5852.00
2019-02-17T13:58:08.505Z,6244.00
2019-02-17T13:59:08.500Z,6516.00
2019-02-17T14:00:08.477Z,6484.00
2019-02-17T14:01:08.464Z,6868.00
2019-02-17T14:02:08.454Z,6892.00
2019-02-17T14:03:08.422Z,7080.00
2019-02-17T14:04:08.413Z,7564.00
2019-02-17T14:05:08.391Z,7968.00
2019-02-17T14:06:08.364Z,8052.00
2019-02-17T14:07:08.354Z,8036.00
2019-02-17T14:08:08.335Z,8012.00
2019-02-17T14:09:08.337Z,7780.00
2019-02-17T14:10:08.300Z,7608.00
2019-02-17T14:11:08.281Z,7072.00
2019-02-17T14:12:08.267Z,6940.00
2019-02-17T14:13:08.250Z,6820.00
2019-02-17T14:14:08.252Z,6664.00
2019-02-17T14:15:08.218Z,6556.00
2019-02-17T14:16:08.227Z,6252.00
2019-02-17T14:17:08.184Z,6148.00
2019-02-17T14:18:08.210Z,5868.00
2019-02-17T14:19:08.141Z,5940.00
2019-02-17T14:20:08.127Z,5912.00
2019-02-17T14:21:08.118Z,6064.00
2019-02-17T14:22:08.145Z,6244.00
2019-02-17T14:23:08.084Z,6200.00
2019-02-17T14:24:08.076Z,5976.00
2019-02-17T14:25:08.063Z,5900.00
2019-02-17T14:26:08.033Z,6036.00
2019-02-17T14:27:08.013Z,6404.00
2019-02-17T14:28:07.992Z,6492.00
2019-02-17T14:29:07.980Z,6532.00
2019-02-17T14:30:07.963Z,6740.00
2019-02-17T14:31:07.946Z,6608.00
2019-02-17T14:32:07.925Z,6872.00
2019-02-17T14:33:07.909Z,7220.00
2019-02-17T14:34:07.899Z,7212.00
2019-02-17T14:35:07.878Z,7192.00
2019-02-17T14:36:07.860Z,7044.00
2019-02-17T14:37:07.851Z,6828.00
2019-02-17T14:38:07.831Z,6716.00
2019-02-17T14:39:07.813Z,6964.00
2019-02-17T14:40:07.802Z,7384.00
2019-02-17T14:41:07.778Z,7452.00
2019-02-17T14:42:07.774Z,8880.00
2019-02-17T14:43:07.764Z,8752.00
2019-02-17T14:44:07.737Z,11684.00
2019-02-17T14:45:07.712Z,13248.00
2019-02-17T14:46:07.699Z,12096.00
2019-02-17T14:47:07.685Z,12828.00
2019-02-17T14:48:07.665Z,11044.00
2019-02-17T14:49:07.694Z,12148.00
2019-02-17T14:50:07.637Z,11524.00
2019-02-17T14:51:07.614Z,10248.00
2019-02-17T14:52:07.608Z,11580.00
2019-02-17T14:53:07.593Z,11804.00
2019-02-17T14:54:07.567Z,10708.00
2019-02-17T14:55:07.560Z,9356.00
2019-02-17T14:56:07.539Z,9860.00
2019-02-17T14:57:07.521Z,9028.00
2019-02-17T14:58:07.512Z,7748.00
2019-02-17T14:59:07.490Z,6564.00
2019-02-17T15:00:07.468Z,6400.00
2019-02-17T15:01:07.461Z,4944.00
2019-02-17T15:02:07.443Z,3876.00
2019-02-17T15:03:07.419Z,3668.00
2019-02-17T15:04:08.982Z,3820.00
2019-02-17T15:05:07.389Z,4132.00
2019-02-17T15:06:07.380Z,4616.00
2019-02-17T15:07:07.359Z,4544.00
2019-02-17T15:08:07.347Z,4712.00
2019-02-17T15:09:07.323Z,5152.00
2019-02-17T15:10:08.791Z,5084.00
2019-02-17T15:11:07.294Z,4880.00
2019-02-17T15:12:07.289Z,5028.00
2019-02-17T15:13:07.264Z,4528.00
2019-02-17T15:14:07.244Z,4148.00
2019-02-17T15:15:07.227Z,3796.00
2019-02-17T15:16:07.210Z,3568.00
2019-02-17T15:17:07.189Z,3548.00
2019-02-17T15:18:07.218Z,3660.00
2019-02-17T15:19:07.166Z,3764.00
2019-02-17T15:20:07.145Z,4056.00
2019-02-17T15:21:07.125Z,4052.00
2019-02-17T15:22:07.111Z,3948.00
2019-02-17T15:23:07.091Z,4044.00
2019-02-17T15:24:08.037Z,4236.00
2019-02-17T15:25:07.575Z,3852.00
2019-02-17T15:26:07.052Z,3416.00
2019-02-17T15:27:07.025Z,3028.00
2019-02-17T15:28:07.014Z,2760.00
2019-02-17T15:29:06.985Z,2628.00
2019-02-17T15:30:06.974Z,2484.00
2019-02-17T15:31:06.958Z,2368.00
2019-02-17T15:32:06.949Z,2280.00
2019-02-17T15:33:06.914Z,2208.00
2019-02-17T15:34:06.908Z,2160.00
2019-02-17T15:35:06.886Z,2124.00
2019-02-17T15:36:06.881Z,2088.00
2019-02-17T15:37:06.847Z,2052.00
2019-02-17T15:38:06.834Z,2012.00
2019-02-17T15:39:06.817Z,1976.00
2019-02-17T15:40:06.801Z,1928.00
2019-02-17T15:41:06.782Z,1872.00
2019-02-17T15:42:06.765Z,1824.00
2019-02-17T15:43:06.745Z,1784.00
2019-02-17T15:44:06.729Z,1752.00
2019-02-17T15:45:06.715Z,1728.00
2019-02-17T15:46:06.686Z,1704.00
2019-02-17T15:47:06.679Z,1680.00
2019-02-17T15:48:06.657Z,1652.00
2019-02-17T15:49:06.640Z,1636.00
2019-02-17T15:50:06.625Z,1612.00
2019-02-17T15:51:06.934Z,1588.00
2019-02-17T15:52:06.595Z,1564.00
2019-02-17T15:53:06.571Z,1536.00
2019-02-17T15:54:06.568Z,1516.00
2019-02-17T15:55:06.532Z,1500.00
2019-02-17T15:56:06.514Z,1484.00
2019-02-17T15:57:06.502Z,1468.00
2019-02-17T15:58:06.479Z,1444.00
2019-02-17T15:59:06.471Z,1424.00
2019-02-17T16:00:06.448Z,1396.00
2019-02-17T16:01:06.430Z,1376.00
2019-02-17T16:02:06.411Z,1348.00
2019-02-17T16:03:06.390Z,1320.00
2019-02-17T16:04:06.375Z,1296.00
2019-02-17T16:05:06.360Z,1272.00
2019-02-17T16:06:06.340Z,1248.00
2019-02-17T16:07:06.322Z,1224.00
2019-02-17T16:08:06.304Z,1196.00
2019-02-17T16:09:06.286Z,1164.00
2019-02-17T16:10:06.268Z,1132.00
2019-02-17T16:11:06.252Z,1100.00
2019-02-17T16:12:06.231Z,1072.00
2019-02-17T16:13:06.215Z,1044.00
2019-02-17T16:14:06.198Z,1016.00
2019-02-17T16:15:06.176Z,988.00
2019-02-17T16:16:06.160Z,960.00
2019-02-17T16:17:06.142Z,932.00
2019-02-17T16:18:06.124Z,900.00
2019-02-17T16:19:06.110Z,868.00
2019-02-17T16:20:06.093Z,836.00
2019-02-17T16:21:06.064Z,800.00
2019-02-17T16:22:06.053Z,768.00
2019-02-17T16:23:06.033Z,740.00
2019-02-17T16:24:06.016Z,708.00
2019-02-17T16:25:05.997Z,684.00
2019-02-17T16:26:05.979Z,660.00
2019-02-17T16:27:05.976Z,628.00
2019-02-17T16:28:05.943Z,600.00
2019-02-17T16:29:05.943Z,576.00
2019-02-17T16:30:05.904Z,552.00
2019-02-17T16:31:05.911Z,528.00
2019-02-17T16:32:05.861Z,504.00
2019-02-17T16:33:05.847Z,476.00
2019-02-17T16:34:05.837Z,444.00
2019-02-17T16:35:05.814Z,416.00
2019-02-17T16:36:05.793Z,388.00
2019-02-17T16:37:05.770Z,360.00
2019-02-17T16:38:05.754Z,336.00
2019-02-17T16:39:05.752Z,308.00
2019-02-17T16:40:05.730Z,284.00
2019-02-17T16:41:05.705Z,260.00
2019-02-17T16:42:05.693Z,236.00
2019-02-17T16:43:05.663Z,220.00
2019-02-17T16:44:05.647Z,200.00
2019-02-17T16:45:05.633Z,180.00
2019-02-17T16:46:05.611Z,164.00
2019-02-17T16:47:05.591Z,144.00
2019-02-17T16:48:05.569Z,132.00
2019-02-17T16:49:05.547Z,120.00
2019-02-17T16:50:05.534Z,108.00
2019-02-17T16:51:05.509Z,96.00
2019-02-17T16:52:05.490Z,88.00
2019-02-17T16:53:05.483Z,80.00
2019-02-17T16:54:05.517Z,72.00
2019-02-17T16:55:05.438Z,64.00
2019-02-17T16:56:05.430Z,60.00
2019-02-17T16:57:05.402Z,52.00
2019-02-17T16:58:05.391Z,44.00
2019-02-17T16:59:05.364Z,40.00
2019-02-17T17:00:05.344Z,36.00
2019-02-17T17:01:05.329Z,32.00
2019-02-17T17:02:05.310Z,28.00
2019-02-17T17:03:05.278Z,28.00
2019-02-17T17:04:05.272Z,24.00
2019-02-17T17:05:05.257Z,16.00
2019-02-17T17:06:05.228Z,16.00
2019-02-17T17:07:05.320Z,12.00
2019-02-17T17:08:05.397Z,12.00
2019-02-17T17:09:05.236Z,12.00
2019-02-17T17:10:05.181Z,8.00
2019-02-17T17:11:05.187Z,8.00
2019-02-17T17:12:05.114Z,8.00
2019-02-17T17:13:05.088Z,4.00
2019-02-17T17:14:08.938Z,4.00
2019-02-17T17:15:05.061Z,4.00
2019-02-17T17:16:05.041Z,0.00
2019-02-17T17:17:05.023Z,4.00
2019-02-17T17:18:04.992Z,4.00
2019-02-17T17:19:04.996Z,4.00
2019-02-17T17:20:04.956Z,0.00
2019-02-17T17:21:04.963Z,0.00
2019-02-17T17:22:04.941Z,0.00
2019-02-17T17:23:05.333Z,0.00
2019-02-17T17:24:04.888Z,0.00
2019-02-17T17:25:04.996Z,0.00
2019-02-17T17:26:04.949Z,0.00
2019-02-17T17:27:05.006Z,0.00
2019-02-17T17:28:04.910Z,0.00
2019-02-17T17:29:04.818Z,0.00
2019-02-17T17:30:04.771Z,0.00
2019-02-17T17:31:04.766Z,0.00
2019-02-17T17:32:04.746Z,0.00
2019-02-17T17:33:04.703Z,0.00
2019-02-17T17:34:04.690Z,0.00
2019-02-17T17:35:04.666Z,0.00
2019-02-17T17:36:04.647Z,0.00
2019-02-17T17:37:04.626Z,0.00
2019-02-17T17:38:04.616Z,0.00
2019-02-17T17:39:04.587Z,0.00
2019-02-17T17:40:04.579Z,0.00
2019-02-17T17:41:04.550Z,0.00
2019-02-17T17:42:04.535Z,0.00
2019-02-17T17:43:04.511Z,0.00
2019-02-17T17:44:04.492Z,0.00
2019-02-17T17:45:04.489Z,0.00
2019-02-17T17:46:04.456Z,0.00
2019-02-17T17:47:04.433Z,0.00
2019-02-17T17:48:04.418Z,0.00
2019-02-17T17:49:04.398Z,0.00
2019-02-17T17:50:04.372Z,0.00
2019-02-17T17:51:04.356Z,0.00
2019-02-17T17:52:04.335Z,0.00
2019-02-17T17:53:04.322Z,0.00
2019-02-17T17:54:04.310Z,0.00
2019-02-17T17:55:04.276Z,0.00
2019-02-17T17:56:04.276Z,0.00
2019-02-17T17:57:04.246Z,0.00
2019-02-17T17:58:04.226Z,0.00
2019-02-17T17:59:04.205Z,0.00
2019-02-17T18:00:04.187Z,0.00
2019-02-17T18:01:04.161Z,0.00
2019-02-17T18:02:04.148Z,0.00
2019-02-17T18:03:04.122Z,0.00
2019-02-17T18:04:04.103Z,0.00
2019-02-17T18:05:09.278Z,0.00
2019-02-17T18:06:04.065Z,0.00
2019-02-17T18:07:04.049Z,0.00
2019-02-17T18:08:04.026Z,0.00
2019-02-17T18:09:04.005Z,0.00
2019-02-17T18:10:03.996Z,0.00
2019-02-17T18:11:03.983Z,0.00
2019-02-17T18:12:03.957Z,0.00
2019-02-17T18:13:03.939Z,0.00
2019-02-17T18:14:03.907Z,0.00
2019-02-17T18:15:03.895Z,0.00
2019-02-17T18:16:03.865Z,0.00
2019-02-17T18:17:03.844Z,0.00
2019-02-17T18:18:03.827Z,0.00
2019-02-17T18:19:03.810Z,0.00
2019-02-17T18:20:03.784Z,0.00
2019-02-17T18:21:03.811Z,0.00
2019-02-17T18:22:03.745Z,0.00
2019-02-17T18:23:03.728Z,0.00
2019-02-17T18:24:03.704Z,0.00
2019-02-17T18:25:03.702Z,0.00
2019-02-17T18:26:03.673Z,0.00
2019-02-17T18:27:03.672Z,0.00
2019-02-17T18:28:03.627Z,0.00
2019-02-17T18:29:03.602Z,0.00
2019-02-17T18:30:03.602Z,0.00
2019-02-17T18:31:03.572Z,0.00
2019-02-17T18:32:03.567Z,0.00
2019-02-17T18:33:03.532Z,0.00
2019-02-17T18:34:03.513Z,0.00
2019-02-17T18:35:03.501Z,0.00
2019-02-17T18:36:03.468Z,0.00
2019-02-17T18:37:03.450Z,0.00
2019-02-17T18:38:03.427Z,0.00
2019-02-17T18:39:03.413Z,0.00
2019-02-17T18:40:03.391Z,0.00
2019-02-17T18:41:03.366Z,0.00
2019-02-17T18:42:03.350Z,0.00
2019-02-17T18:43:03.343Z,0.00
2019-02-17T18:44:03.318Z,0.00
2019-02-17T18:45:03.293Z,0.00
2019-02-17T18:46:03.275Z,0.00
2019-02-17T18:47:03.255Z,0.00
2019-02-17T18:48:03.245Z,0.00
2019-02-17T18:49:03.233Z,0.00
2019-02-17T18:50:03.195Z,0.00
2019-02-17T18:51:03.178Z,0.00
2019-02-17T18:52:03.158Z,0.00
2019-02-17T18:53:03.133Z,0.00
2019-02-17T18:54:03.119Z,0.00
2019-02-17T18:55:03.106Z,0.00
2019-02-17T18:56:03.078Z,0.00
2019-02-17T18:57:08.284Z,0.00
2019-02-17T18:58:03.030Z,0.00
2019-02-17T18:59:03.015Z,0.00
2019-02-17T19:00:02.998Z,0.00
2019-02-17T19:01:02.979Z,0.00
2019-02-17T19:02:02.956Z,0.00
2019-02-17T19:03:02.935Z,0.00
2019-02-17T19:04:02.916Z,0.00
2019-02-17T19:05:02.898Z,0.00
2019-02-17T19:06:02.890Z,0.00
2019-02-17T19:07:02.862Z,0.00
2019-02-17T19:08:02.846Z,0.00
2019-02-17T19:09:02.814Z,0.00
2019-02-17T19:10:02.794Z,0.00
2019-02-17T19:11:02.775Z,0.00
2019-02-17T19:12:02.749Z,0.00
2019-02-17T19:13:02.734Z,0.00
2019-02-17T19:14:02.720Z,0.00
2019-02-17T19:15:02.713Z,0.00
2019-02-17T19:16:02.691Z,0.00
2019-02-17T19:17:02.658Z,0.00
2019-02-17T19:18:02.641Z,0.00
2019-02-17T19:19:02.615Z,0.00
2019-02-17T19:20:02.598Z,0.00
2019-02-17T19:21:02.573Z,0.00
2019-02-17T19:22:02.551Z,0.00
2019-02-17T19:23:02.529Z,0.00
2019-02-17T19:24:02.515Z,0.00
2019-02-17T19:25:02.487Z,0.00
2019-02-17T19:26:02.475Z,0.00
2019-02-17T19:27:02.458Z,0.00
2019-02-17T19:28:03.772Z,0.00
2019-02-17T19:29:02.409Z,0.00
2019-02-17T19:30:02.388Z,0.00
2019-02-17T19:31:02.370Z,0.00
2019-02-17T19:32:02.354Z,0.00
2019-02-17T19:33:02.334Z,0.00
2019-02-17T19:34:02.317Z,0.00
2019-02-17T19:35:02.294Z,0.00
2019-02-17T19:36:02.269Z,0.00
2019-02-17T19:37:02.258Z,0.00
2019-02-17T19:38:02.233Z,0.00
2019-02-17T19:39:02.217Z,0.00
2019-02-17T19:40:02.196Z,0.00
2019-02-17T19:41:02.170Z,0.00
2019-02-17T19:42:02.151Z,0.00
2019-02-17T19:43:03.523Z,0.00
2019-02-17T19:44:02.131Z,0.00
2019-02-17T19:45:02.088Z,0.00
2019-02-17T19:46:02.070Z,0.00
2019-02-17T19:47:02.046Z,0.00
2019-02-17T19:48:02.029Z,0.00
2019-02-17T19:49:02.017Z,0.00
2019-02-17T19:50:01.992Z,0.00
2019-02-17T19:51:01.965Z,0.00
2019-02-17T19:52:01.958Z,0.00
2019-02-17T19:53:01.945Z,0.00
2019-02-17T19:54:01.907Z,0.00
2019-02-17T19:55:01.897Z,0.00
2019-02-17T19:56:01.874Z,0.00
2019-02-17T19:57:01.852Z,0.00
2019-02-17T19:58:01.836Z,0.00
2019-02-17T19:59:01.815Z,0.00
2019-02-17T20:00:01.888Z,0.00
2019-02-17T20:01:01.767Z,0.00
2019-02-17T20:02:01.744Z,0.00
2019-02-17T20:03:01.744Z,0.00
2019-02-17T20:04:01.708Z,0.00
2019-02-17T20:05:01.693Z,0.00
2019-02-17T20:06:01.670Z,0.00
2019-02-17T20:07:01.647Z,0.00
2019-02-17T20:08:01.628Z,0.00
2019-02-17T20:09:01.608Z,0.00
2019-02-17T20:10:01.592Z,0.00
2019-02-17T20:11:01.566Z,0.00
2019-02-17T20:12:01.547Z,0.00
2019-02-17T20:13:01.530Z,0.00
2019-02-17T20:14:01.512Z,0.00
2019-02-17T20:15:01.494Z,0.00
2019-02-17T20:16:01.471Z,0.00
2019-02-17T20:17:01.450Z,0.00
2019-02-17T20:18:01.434Z,0.00
2019-02-17T20:19:01.416Z,0.00
2019-02-17T20:20:01.394Z,0.00
2019-02-17T20:21:01.369Z,0.00
2019-02-17T20:22:01.352Z,0.00
2019-02-17T20:23:01.323Z,0.00
2019-02-17T20:24:01.302Z,0.00
2019-02-17T20:25:01.283Z,0.00
2019-02-17T20:26:01.266Z,0.00
2019-02-17T20:27:01.247Z,0.00
2019-02-17T20:28:01.216Z,0.00
2019-02-17T20:29:01.207Z,0.00
2019-02-17T20:30:01.194Z,0.00
2019-02-17T20:31:01.152Z,0.00
2019-02-17T20:32:01.145Z,0.00
2019-02-17T20:33:01.133Z,0.00
2019-02-17T20:34:01.098Z,0.00
2019-02-17T20:35:01.076Z,0.00
2019-02-17T20:36:02.997Z,0.00
2019-02-17T20:37:01.043Z,0.00
2019-02-17T20:38:01.044Z,0.00
2019-02-17T20:39:00.992Z,0.00
2019-02-17T20:40:00.995Z,0.00
2019-02-17T20:41:00.965Z,0.00
2019-02-17T20:42:00.939Z,0.00
2019-02-17T20:43:00.920Z,0.00
2019-02-17T20:44:00.892Z,0.00
2019-02-17T20:45:00.879Z,0.00
2019-02-17T20:46:00.865Z,0.00
2019-02-17T20:47:00.837Z,0.00
2019-02-17T20:48:00.811Z,0.00
2019-02-17T20:49:00.790Z,0.00
2019-02-17T20:50:00.777Z,0.00
2019-02-17T20:51:00.758Z,0.00
2019-02-17T20:52:00.737Z,0.00
2019-02-17T20:53:00.709Z,0.00
2019-02-17T20:54:00.680Z,0.00
2019-02-17T20:55:01.104Z,0.00
2019-02-17T20:56:00.652Z,0.00
2019-02-17T20:57:00.627Z,0.00
2019-02-17T20:58:00.612Z,0.00
2019-02-17T20:59:00.589Z,0.00
2019-02-17T21:00:00.569Z,0.00
2019-02-17T21:01:00.564Z,0.00
2019-02-17T21:02:00.525Z,0.00
2019-02-17T21:03:00.532Z,0.00
2019-02-17T21:04:00.484Z,0.00
2019-02-17T21:05:00.490Z,0.00
2019-02-17T21:06:00.490Z,0.00
2019-02-17T21:07:00.416Z,0.00
2019-02-17T21:08:00.403Z,0.00
2019-02-17T21:09:00.383Z,0.00
2019-02-17T21:10:00.361Z,0.00
2019-02-17T21:11:00.345Z,0.00
2019-02-17T21:12:00.325Z,0.00
2019-02-17T21:13:00.345Z,0.00
2019-02-17T21:14:00.289Z,0.00
2019-02-17T21:15:00.357Z,0.00
2019-02-17T21:16:00.240Z,0.00
2019-02-17T21:17:00.215Z,0.00
2019-02-17T21:18:00.215Z,0.00
2019-02-17T21:19:00.171Z,0.00
2019-02-17T21:20:00.295Z,0.00
2019-02-17T21:21:00.163Z,0.00
2019-02-17T21:22:00.113Z,0.00
2019-02-17T21:23:00.097Z,0.00
2019-02-17T21:24:00.076Z,0.00
2019-02-17T21:25:00.089Z,0.00
2019-02-17T21:26:00.040Z,0.00
2019-02-17T21:27:00.008Z,0.00
2019-02-17T21:27:59.981Z,0.00
2019-02-17T21:28:59.968Z,0.00
2019-02-17T21:29:59.973Z,0.00
2019-02-17T21:30:59.931Z,0.00
2019-02-17T21:31:59.909Z,0.00
2019-02-17T21:32:59.893Z,0.00
2019-02-17T21:33:59.865Z,0.00
2019-02-17T21:34:59.840Z,0.00
2019-02-17T21:35:59.824Z,0.00
2019-02-17T21:36:59.809Z,0.00
2019-02-17T21:37:59.807Z,0.00
2019-02-17T21:38:59.766Z,0.00
2019-02-17T21:39:59.740Z,0.00
2019-02-17T21:41:08.952Z,0.00
2019-02-17T21:41:59.696Z,0.00
2019-02-17T21:42:59.677Z,0.00
2019-02-17T21:43:59.659Z,0.00
2019-02-17T21:44:59.649Z,0.00
2019-02-17T21:45:59.614Z,0.00
2019-02-17T21:46:59.603Z,0.00
2019-02-17T21:47:59.574Z,0.00
2019-02-17T21:48:59.548Z,0.00
2019-02-17T21:49:59.523Z,0.00
2019-02-17T21:50:59.506Z,0.00
2019-02-17T21:51:59.488Z,0.00
2019-02-17T21:52:59.464Z,0.00
2019-02-17T21:53:59.444Z,0.00
2019-02-17T21:54:59.425Z,0.00
2019-02-17T21:55:59.456Z,0.00
2019-02-17T21:56:59.382Z,0.00
2019-02-17T21:57:59.369Z,0.00
2019-02-17T21:58:59.346Z,0.00
2019-02-17T21:59:59.331Z,0.00
2019-02-17T22:00:59.327Z,0.00
2019-02-17T22:01:59.283Z,0.00
2019-02-17T22:02:59.266Z,0.00
2019-02-17T22:03:59.252Z,0.00
2019-02-17T22:04:59.215Z,0.00
2019-02-17T22:05:59.196Z,0.00
2019-02-17T22:06:59.177Z,0.00
2019-02-17T22:07:59.151Z,0.00
2019-02-17T22:08:59.130Z,0.00
2019-02-17T22:10:00.782Z,0.00
2019-02-17T22:10:59.091Z,0.00
2019-02-17T22:11:59.064Z,0.00
2019-02-17T22:12:59.055Z,0.00
2019-02-17T22:13:59.034Z,0.00
2019-02-17T22:14:59.017Z,0.00
2019-02-17T22:15:58.996Z,0.00
2019-02-17T22:16:58.972Z,0.00
2019-02-17T22:17:58.955Z,0.00
2019-02-17T22:18:58.929Z,0.00
2019-02-17T22:19:58.904Z,0.00
2019-02-17T22:20:58.888Z,0.00
2019-02-17T22:21:58.860Z,0.00
2019-02-17T22:22:58.845Z,0.00
2019-02-17T22:23:58.823Z,0.00
2019-02-17T22:24:58.803Z,0.00
2019-02-17T22:25:58.786Z,0.00
2019-02-17T22:26:58.759Z,0.00
2019-02-17T22:27:58.740Z,0.00
2019-02-17T22:28:58.727Z,0.00
2019-02-17T22:29:58.701Z,0.00